Time;durP1;ratioP1;P1;durP2;ratioP2;P2;SDS_P1;SDS_P2;PMS_P1;PMS_P2;Temp;Humidity;BMP_temperature;BMP_pressure;BME280_temperature;BME280_humidity;BME280_pressure;Samples;Min_cycle;Max_cycle;Signal;HPM_P1;HPM_P2
2021/09/24 00:00:01;;;;;;;24.38;15.15;;;;;;;16.09;100.00;96507.75;4987599;28;20051;-60
2021/09/24 00:02:29;;;;;;;19.92;13.77;;;;;;;15.70;100.00;96504.38;4985495;28;20066;-60
2021/09/24 00:04:59;;;;;;;22.02;15.52;;;;;;;16.32;100.00;96499.75;4988151;28;20467;-58
2021/09/24 00:07:28;;;;;;;22.33;14.73;;;;;;;15.97;100.00;96495.06;4989498;28;20173;-58
2021/09/24 00:09:56;;;;;;;21.23;14.80;;;;;;;16.07;100.00;96496.47;4988353;28;20062;-59
2021/09/24 00:12:25;;;;;;;21.38;14.27;;;;;;;16.05;100.00;96497.66;4986468;28;20070;-59
2021/09/24 00:14:55;;;;;;;20.85;14.15;;;;;;;15.78;100.00;96483.88;4983505;28;20077;-60
2021/09/24 00:17:23;;;;;;;22.20;14.75;;;;;;;15.98;100.00;96488.72;4984657;28;20450;-56
2021/09/24 00:19:52;;;;;;;22.00;14.15;;;;;;;15.92;100.00;96489.44;4988673;28;20082;-60
2021/09/24 00:22:21;;;;;;;22.95;14.75;;;;;;;15.90;100.00;96500.25;4983836;28;20536;-60
2021/09/24 00:24:50;;;;;;;20.23;13.68;;;;;;;15.88;100.00;96495.09;4979354;28;20061;-59
2021/09/24 00:27:18;;;;;;;20.83;15.00;;;;;;;15.72;100.00;96495.22;4982687;28;20070;-59
2021/09/24 00:29:47;;;;;;;20.63;13.98;;;;;;;15.72;100.00;96489.88;4986289;28;20062;-60
2021/09/24 00:32:16;;;;;;;22.50;14.05;;;;;;;15.88;100.00;96502.25;4985631;28;20074;-58
2021/09/24 00:34:45;;;;;;;22.23;13.57;;;;;;;15.67;100.00;96492.25;4986047;28;20066;-58
2021/09/24 00:37:14;;;;;;;20.25;14.48;;;;;;;15.78;100.00;96491.03;4989903;28;20088;-59
2021/09/24 00:39:42;;;;;;;20.67;13.38;;;;;;;15.80;100.00;96500.50;4981951;28;20074;-60
2021/09/24 00:42:11;;;;;;;20.95;14.38;;;;;;;15.91;100.00;96496.59;4980503;28;20504;-60
2021/09/24 00:44:40;;;;;;;22.20;13.80;;;;;;;15.88;100.00;96491.63;4987596;28;20098;-59
2021/09/24 00:47:09;;;;;;;21.90;14.50;;;;;;;16.05;100.00;96498.47;4985121;28;20525;-59
2021/09/24 00:49:39;;;;;;;20.30;14.45;;;;;;;16.03;100.00;96507.63;4983992;28;20088;-60
2021/09/24 00:52:08;;;;;;;20.52;15.15;;;;;;;16.01;100.00;96509.66;4989500;28;20112;-59
2021/09/24 00:54:37;;;;;;;21.02;14.82;;;;;;;15.58;100.00;96499.41;4984590;28;20468;-60
2021/09/24 00:57:06;;;;;;;20.70;13.82;;;;;;;15.82;100.00;96508.28;4982893;28;20065;-59
2021/09/24 00:59:35;;;;;;;20.60;15.23;;;;;;;15.74;100.00;96509.16;4986827;28;20116;-59
2021/09/24 01:02:04;;;;;;;21.10;14.35;;;;;;;15.40;100.00;96510.31;4986147;28;20107;-59
2021/09/24 01:04:33;;;;;;;21.38;14.23;;;;;;;15.72;100.00;96505.00;4985256;28;20051;-60
2021/09/24 01:07:04;;;;;;;22.52;14.75;;;;;;;15.58;100.00;96511.88;4984746;28;20113;-59
2021/09/24 01:09:32;;;;;;;24.25;15.85;;;;;;;15.66;100.00;96512.72;4983811;28;20085;-58
2021/09/24 01:12:01;;;;;;;22.13;14.23;;;;;;;15.61;100.00;96509.69;4986676;28;20536;-59
2021/09/24 01:14:30;;;;;;;23.63;15.00;;;;;;;15.76;100.00;96509.81;4986453;28;20062;-60
2021/09/24 01:16:59;;;;;;;21.52;15.07;;;;;;;15.50;100.00;96504.78;4984760;28;20077;-60
2021/09/24 01:19:29;;;;;;;22.77;14.48;;;;;;;15.60;100.00;96501.91;4985146;28;20158;-58
2021/09/24 01:21:59;;;;;;;20.85;15.15;;;;;;;15.66;100.00;96490.63;4984149;28;20306;-59
2021/09/24 01:24:27;;;;;;;21.58;13.90;;;;;;;15.38;100.00;96491.06;4987614;28;20088;-60
2021/09/24 01:26:57;;;;;;;21.88;15.45;;;;;;;15.77;100.00;96482.22;4982203;28;20088;-60
2021/09/24 01:29:27;;;;;;;24.73;16.33;;;;;;;15.95;100.00;96478.44;4988232;28;20073;-59
2021/09/24 01:31:56;;;;;;;20.67;15.30;;;;;;;15.78;100.00;96483.88;4986501;28;20073;-59
2021/09/24 01:34:25;;;;;;;25.63;16.70;;;;;;;15.89;100.00;96488.78;4986024;28;20089;-58
2021/09/24 01:36:53;;;;;;;24.10;16.08;;;;;;;15.79;100.00;96474.88;4985200;28;20066;-58
2021/09/24 01:39:23;;;;;;;23.45;15.73;;;;;;;15.93;100.00;96469.81;4984115;28;20066;-59
2021/09/24 01:41:52;;;;;;;21.23;14.80;;;;;;;15.86;100.00;96464.38;4977847;28;20073;-60
2021/09/24 01:44:21;;;;;;;22.98;15.93;;;;;;;15.83;100.00;96470.06;4986756;28;20491;-60
2021/09/24 01:46:49;;;;;;;22.08;15.18;;;;;;;15.72;100.00;96465.13;4984722;28;20091;-59
2021/09/24 01:49:18;;;;;;;22.55;15.68;;;;;;;15.82;100.00;96469.22;4989215;28;20082;-59
2021/09/24 01:51:47;;;;;;;20.83;15.00;;;;;;;15.79;100.00;96469.56;4983605;28;20096;-60
2021/09/24 01:54:17;;;;;;;21.15;15.43;;;;;;;15.37;100.00;96469.97;4986498;28;20073;-57
2021/09/24 01:56:48;;;;;;;19.85;14.73;;;;;;;15.53;100.00;96466.41;4982546;28;20069;-59
2021/09/24 01:59:16;;;;;;;25.90;16.00;;;;;;;15.73;100.00;96466.81;4979864;28;20073;-59
2021/09/24 02:01:45;;;;;;;20.45;14.60;;;;;;;15.83;100.00;96475.38;4984426;28;20454;-58
2021/09/24 02:04:15;;;;;;;21.40;15.38;;;;;;;15.63;100.00;96486.44;4984852;28;20082;-58
2021/09/24 02:06:44;;;;;;;23.73;16.67;;;;;;;15.96;100.00;96483.56;4984528;28;20070;-60
2021/09/24 02:09:12;;;;;;;20.35;14.23;;;;;;;15.60;100.00;96485.97;4982920;28;20472;-59
2021/09/24 02:11:41;;;;;;;21.95;14.55;;;;;;;15.99;100.00;96485.06;4984247;28;20072;-61
2021/09/24 02:14:11;;;;;;;22.17;15.45;;;;;;;15.95;100.00;96489.91;4981080;28;20082;-60
2021/09/24 02:16:40;;;;;;;20.88;14.65;;;;;;;15.76;100.00;96487.69;4982601;28;20078;-56
2021/09/24 02:19:08;;;;;;;22.38;15.80;;;;;;;15.85;100.00;96486.66;4985400;28;20085;-59
2021/09/24 02:21:37;;;;;;;20.45;14.23;;;;;;;16.00;100.00;96484.91;4984543;28;20093;-60
2021/09/24 02:24:06;;;;;;;21.45;14.32;;;;;;;15.78;100.00;96483.06;4983543;28;20069;-60
2021/09/24 02:26:34;;;;;;;23.08;15.77;;;;;;;15.88;100.00;96494.28;4986024;28;20069;-60
2021/09/24 02:29:12;;;;;;;20.27;15.27;;;;;;;16.02;100.00;96498.00;4986686;28;20635;-59
2021/09/24 02:31:41;;;;;;;21.63;14.98;;;;;;;16.05;100.00;96490.50;4984312;28;20777;-59
2021/09/24 02:34:10;;;;;;;20.40;14.80;;;;;;;16.26;100.00;96492.50;4987039;28;20081;-60
2021/09/24 02:36:39;;;;;;;21.92;15.35;;;;;;;16.26;100.00;96508.44;4985309;28;20054;-54
2021/09/24 02:39:08;;;;;;;20.70;14.75;;;;;;;16.09;100.00;96507.75;4980389;28;20062;-58
2021/09/24 02:41:37;;;;;;;22.13;15.38;;;;;;;16.17;100.00;96514.84;4983084;28;20061;-60
2021/09/24 02:44:07;;;;;;;21.95;14.68;;;;;;;16.26;100.00;96513.78;4984828;28;20073;-57
2021/09/24 02:46:37;;;;;;;20.20;13.90;;;;;;;15.71;100.00;96512.16;4984939;28;20074;-59
2021/09/24 02:49:05;;;;;;;20.38;14.93;;;;;;;15.53;100.00;96511.59;4981714;28;20501;-59
2021/09/24 02:51:34;;;;;;;22.05;14.98;;;;;;;15.52;100.00;96509.91;4982300;28;20062;-60
2021/09/24 02:54:03;;;;;;;20.23;14.98;;;;;;;15.83;100.00;96508.13;4975483;28;20074;-58
2021/09/24 02:56:31;;;;;;;20.08;14.77;;;;;;;15.55;100.00;96501.59;4985193;28;20058;-55
2021/09/24 02:59:00;;;;;;;22.23;15.27;;;;;;;15.64;100.00;96501.38;4982668;28;20513;-59
2021/09/24 03:01:28;;;;;;;25.55;15.80;;;;;;;15.57;100.00;96503.06;4986447;28;20485;-59
2021/09/24 03:03:59;;;;;;;20.08;14.68;;;;;;;15.84;100.00;96509.75;4981296;28;21668;-58
2021/09/24 03:06:28;;;;;;;20.45;14.45;;;;;;;15.35;100.00;96512.66;4987862;28;20429;-60
2021/09/24 03:08:56;;;;;;;21.20;14.70;;;;;;;15.36;100.00;96508.19;4985561;28;20058;-58
2021/09/24 03:11:25;;;;;;;24.45;15.77;;;;;;;15.69;100.00;96500.91;4990071;28;20062;-59
2021/09/24 03:13:54;;;;;;;19.52;14.00;;;;;;;15.52;100.00;96501.94;4985145;28;20070;-59
2021/09/24 03:16:22;;;;;;;22.48;13.98;;;;;;;15.61;100.00;96496.41;4990871;28;20106;-59
2021/09/24 03:18:51;;;;;;;21.27;15.50;;;;;;;15.28;100.00;96498.41;4988952;28;20066;-57
2021/09/24 03:21:21;;;;;;;21.08;15.15;;;;;;;15.15;100.00;96495.47;4983488;28;20063;-56
2021/09/24 03:23:50;;;;;;;21.67;15.00;;;;;;;15.47;100.00;96491.84;4988374;28;20046;-59
2021/09/24 03:26:19;;;;;;;21.52;14.77;;;;;;;15.02;100.00;96490.72;4988947;28;20069;-58
2021/09/24 03:28:48;;;;;;;19.23;14.27;;;;;;;15.08;100.00;96486.56;4986364;28;20081;-59
2021/09/24 03:31:17;;;;;;;22.25;14.18;;;;;;;15.34;100.00;96489.72;5001324;28;20074;-59
2021/09/24 03:33:46;;;;;;;22.73;14.75;;;;;;;15.34;100.00;96491.56;4987685;28;20077;-59
2021/09/24 03:36:14;;;;;;;19.33;14.45;;;;;;;15.36;100.00;96492.22;4990216;28;20416;-58
2021/09/24 03:38:44;;;;;;;22.05;15.30;;;;;;;15.30;100.00;96485.78;4993595;28;20440;-59
2021/09/24 03:41:13;;;;;;;18.80;13.98;;;;;;;15.42;100.00;96488.88;4986499;28;20077;-59
2021/09/24 03:43:41;;;;;;;19.08;13.68;;;;;;;15.54;100.00;96494.63;4988470;28;20080;-59
2021/09/24 03:46:10;;;;;;;18.95;13.63;;;;;;;15.23;100.00;96500.75;4988110;28;20097;-60
2021/09/24 03:48:39;;;;;;;20.70;14.30;;;;;;;15.77;100.00;96498.19;4987555;28;20070;-59
2021/09/24 03:51:07;;;;;;;20.10;13.68;;;;;;;15.74;100.00;96503.03;4986227;28;20070;-59
2021/09/24 03:53:36;;;;;;;18.88;13.60;;;;;;;15.42;100.00;96496.88;4988024;28;20066;-57
2021/09/24 03:56:06;;;;;;;18.40;13.35;;;;;;;15.66;100.00;96503.91;4985881;28;20062;-58
2021/09/24 03:58:34;;;;;;;21.90;14.85;;;;;;;15.72;100.00;96502.34;4989096;28;20072;-60
2021/09/24 04:01:03;;;;;;;36.65;13.90;;;;;;;15.18;100.00;96508.44;4989633;28;20487;-60
2021/09/24 04:03:32;;;;;;;21.58;13.30;;;;;;;15.33;100.00;96514.66;4982828;28;20062;-59
2021/09/24 04:06:00;;;;;;;18.80;13.32;;;;;;;15.24;100.00;96514.84;4984227;28;20073;-59
2021/09/24 04:08:29;;;;;;;17.55;12.98;;;;;;;15.56;100.00;96519.22;4986343;28;20069;-59
2021/09/24 04:10:57;;;;;;;19.55;13.13;;;;;;;15.58;100.00;96530.47;4986858;28;20065;-60
2021/09/24 04:13:27;;;;;;;20.65;13.82;;;;;;;15.43;100.00;96523.25;4986909;28;20085;-61
2021/09/24 04:15:55;;;;;;;18.33;13.00;;;;;;;15.30;100.00;96528.28;4983991;28;20069;-59
2021/09/24 04:18:24;;;;;;;18.75;13.00;;;;;;;15.42;100.00;96520.78;4986552;28;20061;-60
2021/09/24 04:20:52;;;;;;;18.92;13.52;;;;;;;15.26;100.00;96519.00;4988328;28;20082;-58
2021/09/24 04:23:21;;;;;;;19.48;13.52;;;;;;;15.16;100.00;96505.91;4988486;28;20066;-60
2021/09/24 04:25:50;;;;;;;20.02;13.18;;;;;;;15.15;100.00;96514.06;4987843;28;20082;-60
2021/09/24 04:28:18;;;;;;;16.38;12.32;;;;;;;14.97;100.00;96511.66;4988539;28;20093;-60
2021/09/24 04:30:48;;;;;;;20.88;13.57;;;;;;;15.08;100.00;96507.78;4984720;28;20066;-59
2021/09/24 04:33:17;;;;;;;16.60;11.98;;;;;;;14.88;100.00;96518.81;4985611;28;20499;-61
2021/09/24 04:35:45;;;;;;;17.40;11.95;;;;;;;14.73;100.00;96520.50;4986296;28;20069;-60
2021/09/24 04:38:13;;;;;;;16.45;12.00;;;;;;;14.77;100.00;96519.16;4987848;28;20066;-60
2021/09/24 04:40:42;;;;;;;16.85;11.15;;;;;;;14.71;100.00;96523.31;4988098;28;20085;-60
2021/09/24 04:43:10;;;;;;;20.42;12.10;;;;;;;14.63;100.00;96519.84;4988201;28;20460;-59
2021/09/24 04:45:39;;;;;;;16.25;11.95;;;;;;;14.62;100.00;96526.97;4987342;28;20038;-59
2021/09/24 04:48:09;;;;;;;15.90;11.07;;;;;;;14.46;100.00;96530.44;4985428;28;20042;-58
2021/09/24 04:50:38;;;;;;;16.55;11.65;;;;;;;14.43;100.00;96524.66;4987928;28;20516;-59
2021/09/24 04:53:06;;;;;;;16.75;11.60;;;;;;;14.69;100.00;96527.13;4983563;28;20070;-54
2021/09/24 04:55:34;;;;;;;16.63;11.75;;;;;;;14.51;100.00;96534.47;4986857;28;20355;-60
2021/09/24 04:58:03;;;;;;;16.17;11.55;;;;;;;14.56;100.00;96529.50;4989041;28;20078;-60
2021/09/24 05:00:31;;;;;;;16.35;11.43;;;;;;;14.46;100.00;96527.81;4986432;28;20481;-58
2021/09/24 05:03:00;;;;;;;16.35;10.95;;;;;;;14.67;100.00;96531.78;4986967;28;20081;-60
2021/09/24 05:05:30;;;;;;;16.65;10.98;;;;;;;14.55;100.00;96538.44;4983811;28;20070;-59
2021/09/24 05:07:59;;;;;;;16.20;11.93;;;;;;;14.57;100.00;96534.63;4986095;28;20536;-60
2021/09/24 05:10:27;;;;;;;15.05;10.80;;;;;;;14.90;100.00;96530.09;4988584;28;20089;-60
2021/09/24 05:12:55;;;;;;;17.17;11.75;;;;;;;14.88;100.00;96537.38;4985758;28;20081;-60
2021/09/24 05:15:24;;;;;;;14.90;11.75;;;;;;;15.04;100.00;96544.50;4987599;28;20070;-56
2021/09/24 05:17:52;;;;;;;17.08;11.80;;;;;;;15.26;100.00;96553.53;4986585;28;20081;-59
2021/09/24 05:20:21;;;;;;;16.63;11.75;;;;;;;15.14;100.00;96546.94;4986919;28;20070;-60
2021/09/24 05:22:50;;;;;;;15.93;11.73;;;;;;;15.20;100.00;96556.88;4986721;28;20078;-59
2021/09/24 05:25:19;;;;;;;15.75;12.10;;;;;;;15.00;100.00;96553.78;4989321;28;20089;-60
2021/09/24 05:27:47;;;;;;;17.83;11.77;;;;;;;15.61;100.00;96559.38;4984907;28;20062;-60
2021/09/24 05:30:16;;;;;;;15.82;11.77;;;;;;;16.04;100.00;96559.84;4984997;28;20065;-60
2021/09/24 05:32:44;;;;;;;18.65;12.15;;;;;;;16.03;100.00;96563.50;4986682;28;20073;-59
2021/09/24 05:35:14;;;;;;;21.00;12.40;;;;;;;16.21;100.00;96558.72;4986753;28;20066;-59
2021/09/24 05:37:43;;;;;;;17.73;11.98;;;;;;;16.29;100.00;96565.81;4986683;28;20101;-59
2021/09/24 05:40:14;;;;;;;16.63;12.15;;;;;;;16.40;100.00;96567.25;4992096;28;20082;-59
2021/09/24 05:42:43;;;;;;;16.83;11.10;;;;;;;16.49;100.00;96563.50;4985548;28;20551;-60
2021/09/24 05:45:14;;;;;;;15.55;11.57;;;;;;;16.62;100.00;96571.72;4984077;28;20442;-60
2021/09/24 05:47:43;;;;;;;18.73;11.90;;;;;;;16.58;100.00;96571.22;4986623;28;20058;-59
2021/09/24 05:50:13;;;;;;;17.17;12.23;;;;;;;16.63;100.00;96569.88;4985784;28;20078;-60
2021/09/24 05:52:44;;;;;;;20.20;12.38;;;;;;;16.59;100.00;96578.22;4985656;28;20106;-59
2021/09/24 05:55:16;;;;;;;15.68;12.15;;;;;;;16.81;100.00;96576.56;4982383;28;20089;-58
2021/09/24 05:57:45;;;;;;;20.77;11.88;;;;;;;17.06;100.00;96573.66;4986569;28;20454;-59
2021/09/24 06:00:15;;;;;;;16.92;11.75;;;;;;;17.13;100.00;96576.41;4985501;28;20058;-59
2021/09/24 06:02:45;;;;;;;17.58;12.00;;;;;;;17.18;100.00;96574.88;4985483;28;20069;-60
2021/09/24 06:05:14;;;;;;;17.10;11.77;;;;;;;16.88;100.00;96575.84;4985588;28;20066;-57
2021/09/24 06:07:43;;;;;;;16.02;11.93;;;;;;;16.92;100.00;96577.13;4987447;28;20074;-60
2021/09/24 06:10:15;;;;;;;16.40;12.10;;;;;;;16.82;100.00;96577.38;4987746;28;20520;-58
2021/09/24 06:12:47;;;;;;;18.05;11.75;;;;;;;17.06;100.00;96579.81;4985349;28;20058;-60
2021/09/24 06:15:17;;;;;;;16.33;11.90;;;;;;;17.28;100.00;96580.75;4984990;28;20074;-59
2021/09/24 06:17:45;;;;;;;17.77;11.13;;;;;;;16.66;100.00;96578.34;4983953;28;20073;-59
2021/09/24 06:20:14;;;;;;;17.60;11.35;;;;;;;16.73;100.00;96586.44;4983433;28;20085;-60
2021/09/24 06:22:43;;;;;;;16.50;10.93;;;;;;;16.72;100.00;96577.59;4984377;28;20489;-59
2021/09/24 06:25:12;;;;;;;14.45;11.05;;;;;;;17.23;100.00;96574.31;4987514;28;20108;-58
2021/09/24 06:27:42;;;;;;;16.33;11.30;;;;;;;17.04;100.00;96575.69;4982505;28;20484;-60
2021/09/24 06:30:14;;;;;;;15.90;10.80;;;;;;;17.33;100.00;96573.03;4985187;28;20797;-60
2021/09/24 06:32:42;;;;;;;13.82;10.63;;;;;;;17.52;100.00;96571.66;4983250;28;20058;-58
2021/09/24 06:35:12;;;;;;;15.63;11.27;;;;;;;17.37;100.00;96581.47;4983887;28;20072;-60
2021/09/24 06:37:41;;;;;;;14.90;10.82;;;;;;;17.78;100.00;96568.50;4983163;28;20085;-60
2021/09/24 06:40:10;;;;;;;15.95;10.70;;;;;;;17.99;100.00;96574.91;4986712;28;20088;-60
2021/09/24 06:42:39;;;;;;;14.20;10.30;;;;;;;17.83;100.00;96577.81;4981455;28;20066;-59
2021/09/24 06:45:12;;;;;;;13.73;10.45;;;;;;;17.87;100.00;96571.91;4985030;28;20072;-60
2021/09/24 06:47:41;;;;;;;16.10;10.70;;;;;;;18.14;100.00;96580.22;4985581;28;20069;-60
2021/09/24 06:50:11;;;;;;;17.85;10.55;;;;;;;17.58;100.00;96579.91;4980450;28;20062;-59
2021/09/24 06:52:39;;;;;;;15.70;10.30;;;;;;;18.01;100.00;96578.22;4984544;28;20085;-59
2021/09/24 06:55:09;;;;;;;12.32;9.38;;;;;;;18.28;100.00;96579.31;4988314;28;20074;-58
2021/09/24 06:57:38;;;;;;;11.60;9.07;;;;;;;17.79;100.00;96583.50;4983465;28;20054;-60
2021/09/24 07:00:09;;;;;;;12.48;9.57;;;;;;;17.98;100.00;96586.59;4985529;28;20104;-60
2021/09/24 07:02:38;;;;;;;11.45;9.00;;;;;;;17.96;100.00;96583.28;4978844;28;20062;-59
2021/09/24 07:05:07;;;;;;;10.93;8.73;;;;;;;17.66;100.00;96595.81;4975136;28;20072;-59
2021/09/24 07:07:40;;;;;;;11.43;8.10;;;;;;;18.16;100.00;96591.50;4985116;28;20085;-60
2021/09/24 07:10:09;;;;;;;11.60;9.07;;;;;;;18.42;100.00;96585.63;4985208;28;20074;-60
2021/09/24 07:12:38;;;;;;;19.70;9.32;;;;;;;18.98;100.00;96591.06;4986213;28;20492;-60
2021/09/24 07:15:07;;;;;;;13.15;8.02;;;;;;;17.48;100.00;96599.69;4979487;28;20077;-58
2021/09/24 07:17:37;;;;;;;10.10;8.10;;;;;;;18.45;100.00;96596.75;4984695;28;20082;-60
2021/09/24 07:20:07;;;;;;;11.20;8.07;;;;;;;18.42;100.00;96590.97;4984810;28;20365;-59
2021/09/24 07:22:35;;;;;;;12.40;8.07;;;;;;;18.52;100.00;96594.16;4982694;28;20086;-60
2021/09/24 07:25:05;;;;;;;10.18;7.30;;;;;;;18.37;100.00;96598.69;4984205;28;20449;-61
2021/09/24 07:27:33;;;;;;;11.80;7.47;;;;;;;18.53;100.00;96597.63;4986922;28;20062;-59
2021/09/24 07:30:02;;;;;;;9.95;7.60;;;;;;;18.92;100.00;96608.69;4985050;28;20515;-60
2021/09/24 07:32:31;;;;;;;9.05;7.10;;;;;;;19.26;100.00;96606.28;4979638;28;20070;-60
2021/09/24 07:35:01;;;;;;;10.18;7.40;;;;;;;18.99;100.00;96616.75;4989427;28;20074;-60
2021/09/24 07:37:29;;;;;;;9.57;7.07;;;;;;;19.45;100.00;96618.97;4985188;28;20686;-60
2021/09/24 07:39:58;;;;;;;9.25;7.07;;;;;;;19.21;100.00;96620.22;4983380;28;20437;-60
2021/09/24 07:42:26;;;;;;;9.60;7.43;;;;;;;18.91;100.00;96616.91;4982951;28;20077;-60
2021/09/24 07:44:55;;;;;;;9.10;7.70;;;;;;;18.96;100.00;96620.66;4982355;28;20602;-61
2021/09/24 07:47:24;;;;;;;8.85;6.72;;;;;;;18.70;100.00;96613.22;4977854;28;20073;-59
2021/09/24 07:49:53;;;;;;;7.45;6.30;;;;;;;19.48;100.00;96613.22;4985860;28;20441;-60
2021/09/24 07:52:23;;;;;;;9.00;7.60;;;;;;;19.30;100.00;96620.91;4991231;28;20531;-60
2021/09/24 07:54:51;;;;;;;11.80;7.28;;;;;;;19.54;100.00;96625.78;4987852;28;20169;-59
2021/09/24 07:57:19;;;;;;;10.05;7.25;;;;;;;19.76;100.00;96625.75;4984978;28;20084;-60
2021/09/24 07:59:48;;;;;;;8.63;6.47;;;;;;;19.87;100.00;96625.19;4986388;28;20076;-59
2021/09/24 08:02:17;;;;;;;10.60;7.25;;;;;;;20.15;100.00;96617.03;4984562;28;20080;-60
2021/09/24 08:04:45;;;;;;;8.68;6.70;;;;;;;20.11;100.00;96619.28;4989055;28;20476;-61
2021/09/24 08:07:14;;;;;;;11.50;6.53;;;;;;;19.77;100.00;96632.75;4987992;28;20085;-59
2021/09/24 08:09:44;;;;;;;8.90;6.72;;;;;;;20.20;100.00;96629.81;4986093;28;20078;-60
2021/09/24 08:12:12;;;;;;;10.20;6.85;;;;;;;20.37;100.00;96623.06;4984505;28;20442;-60
2021/09/24 08:14:41;;;;;;;7.82;6.53;;;;;;;19.99;100.00;96625.41;4988033;28;20074;-60
2021/09/24 08:17:10;;;;;;;7.97;6.32;;;;;;;20.20;100.00;96622.63;4987189;28;20074;-60
2021/09/24 08:19:39;;;;;;;8.88;7.53;;;;;;;20.51;100.00;96624.81;4986296;28;20085;-58
2021/09/24 08:22:07;;;;;;;8.73;6.30;;;;;;;20.15;100.00;96615.19;4989554;28;20077;-58
2021/09/24 08:24:36;;;;;;;9.05;6.63;;;;;;;20.80;100.00;96612.06;4989149;28;20077;-59
2021/09/24 08:27:06;;;;;;;8.73;6.75;;;;;;;20.69;100.00;96612.69;4983246;28;20066;-59
2021/09/24 08:29:34;;;;;;;8.48;6.53;;;;;;;20.74;100.00;96616.38;4983283;28;20062;-60
2021/09/24 08:32:03;;;;;;;8.00;6.20;;;;;;;20.29;100.00;96613.38;4982716;28;20070;-60
2021/09/24 08:34:31;;;;;;;9.07;6.55;;;;;;;21.55;100.00;96616.16;4989321;28;20092;-60
2021/09/24 08:37:01;;;;;;;9.88;6.50;;;;;;;20.64;100.00;96621.31;4984627;28;21261;-60
2021/09/24 08:39:30;;;;;;;8.70;6.40;;;;;;;20.91;100.00;96615.97;4986507;28;20080;-60
2021/09/24 08:41:58;;;;;;;11.32;6.75;;;;;;;21.26;100.00;96630.81;4979833;28;20078;-59
2021/09/24 08:44:28;;;;;;;11.73;6.18;;;;;;;21.65;100.00;96621.09;4987650;28;20185;-60
2021/09/24 08:46:57;;;;;;;6.93;5.95;;;;;;;21.51;100.00;96614.94;4987089;28;20069;-60
2021/09/24 08:49:25;;;;;;;9.93;6.10;;;;;;;21.26;100.00;96624.63;4988836;28;20074;-60
2021/09/24 08:51:53;;;;;;;8.30;5.95;;;;;;;21.27;99.09;96621.75;4984182;28;20066;-60
2021/09/24 08:54:22;;;;;;;8.52;5.88;;;;;;;20.76;100.00;96624.22;4986587;28;20069;-59
2021/09/24 08:56:50;;;;;;;7.05;5.22;;;;;;;21.00;100.00;96620.94;4984885;28;20164;-61
2021/09/24 08:59:19;;;;;;;6.82;5.30;;;;;;;21.83;94.40;96623.09;4982934;28;20433;-59
2021/09/24 09:02:07;;;;;;;7.47;5.65;;;;;;;21.62;89.04;96618.84;4983066;28;20476;-61
2021/09/24 09:04:37;;;;;;;7.57;5.72;;;;;;;21.56;92.15;96619.66;4983417;28;20086;-58
2021/09/24 09:07:07;;;;;;;11.10;5.82;;;;;;;21.55;88.70;96613.47;4990248;28;20096;-60
2021/09/24 09:09:37;;;;;;;7.50;5.57;;;;;;;21.74;87.17;96616.31;4982677;28;20088;-60
2021/09/24 09:12:13;;;;;;;7.30;5.93;;;;;;;22.16;81.12;96612.28;4982251;28;20464;-60
2021/09/24 09:14:42;;;;;;;7.20;5.60;;;;;;;21.83;90.15;96616.91;4981833;28;20069;-60
2021/09/24 09:17:33;;;;;;;8.15;5.78;;;;;;;21.81;80.93;96614.44;4985955;28;20054;-60
2021/09/24 09:20:19;;;;;;;7.55;5.28;;;;;;;22.00;83.58;96613.53;4982854;28;20046;-60
2021/09/24 09:22:50;;;;;;;8.52;6.03;;;;;;;22.52;78.14;96610.84;4984682;28;20106;-60
2021/09/24 09:25:26;;;;;;;7.75;5.10;;;;;;;22.43;85.17;96612.13;4984219;28;20084;-60
2021/09/24 09:27:56;;;;;;;7.35;5.47;;;;;;;22.32;82.45;96610.13;4987398;28;20065;-59
2021/09/24 09:30:25;;;;;;;8.02;5.22;;;;;;;21.54;80.24;96611.84;4984711;28;20073;-60
2021/09/24 09:33:03;;;;;;;7.03;5.03;;;;;;;21.88;82.01;96615.22;4985471;28;20543;-60
2021/09/24 09:35:36;;;;;;;8.10;5.18;;;;;;;21.27;87.00;96602.16;4985372;28;20074;-60
2021/09/24 09:38:05;;;;;;;8.80;5.60;;;;;;;22.06;79.09;96609.19;4986460;28;20078;-60
2021/09/24 09:40:33;;;;;;;6.15;5.10;;;;;;;21.77;84.69;96608.66;4986991;28;20073;-60
2021/09/24 09:43:02;;;;;;;5.78;4.80;;;;;;;21.78;81.29;96609.47;4983036;28;20574;-60
2021/09/24 09:45:32;;;;;;;11.00;5.85;;;;;;;22.50;74.78;96597.63;4978061;28;20224;-60
2021/09/24 09:48:02;;;;;;;9.93;5.40;;;;;;;22.18;74.93;96593.25;5019560;28;20058;-60
2021/09/24 09:50:30;;;;;;;7.10;5.60;;;;;;;22.80;73.95;96591.59;4983810;28;20069;-60
2021/09/24 09:53:01;;;;;;;7.88;5.05;;;;;;;22.04;75.95;96587.91;4997338;28;20041;-58
2021/09/24 09:55:32;;;;;;;8.07;5.35;;;;;;;22.37;75.62;96592.31;4983517;28;20081;-60
2021/09/24 09:58:03;;;;;;;8.93;5.82;;;;;;;22.67;75.76;96581.78;4985404;28;20066;-60
2021/09/24 10:00:33;;;;;;;10.73;5.38;;;;;;;22.46;73.60;96576.75;4985395;28;20062;-59
2021/09/24 10:03:10;;;;;;;6.75;4.90;;;;;;;22.57;77.53;96576.03;4982962;28;20062;-60
2021/09/24 10:05:41;;;;;;;6.32;5.22;;;;;;;22.39;74.48;96576.78;4981862;28;20058;-59
2021/09/24 10:08:24;;;;;;;8.23;6.00;;;;;;;23.14;67.89;96573.38;4985180;28;20062;-59
2021/09/24 10:10:57;;;;;;;8.55;5.15;;;;;;;22.36;73.53;96579.09;4985353;28;20082;-60
2021/09/24 10:13:27;;;;;;;8.05;6.00;;;;;;;22.67;71.05;96573.69;4980136;28;20619;-61
2021/09/24 10:15:56;;;;;;;6.95;5.60;;;;;;;23.45;68.55;96570.56;4979375;28;20375;-60
2021/09/24 10:18:25;;;;;;;8.25;5.18;;;;;;;22.90;73.73;96575.00;4985925;28;20062;-59
2021/09/24 10:20:55;;;;;;;11.00;5.72;;;;;;;23.40;69.22;96574.94;4982270;28;20089;-61
2021/09/24 10:23:23;;;;;;;6.45;5.28;;;;;;;23.64;66.87;96573.25;4987210;28;20452;-60
2021/09/24 10:25:57;;;;;;;6.95;5.35;;;;;;;23.35;65.70;96561.34;4983732;28;20093;-59
2021/09/24 10:28:32;;;;;;;9.45;5.50;;;;;;;23.86;65.95;96563.72;4985833;28;20078;-59
2021/09/24 10:31:01;;;;;;;6.65;5.07;;;;;;;24.09;63.53;96562.19;4984821;28;20241;-60
2021/09/24 10:33:55;;;;;;;9.55;6.60;;;;;;;23.40;66.03;96565.03;4982562;28;20072;-61
2021/09/24 10:36:37;;;;;;;7.20;5.97;;;;;;;23.83;65.17;96560.66;4977750;28;20111;-58
2021/09/24 10:39:33;;;;;;;8.68;4.85;;;;;;;23.09;67.61;96554.34;4986460;28;20543;-59
2021/09/24 10:42:34;;;;;;;6.03;5.43;;;;;;;24.34;65.21;96546.69;4984592;28;20066;-56
2021/09/24 10:45:12;;;;;;;9.50;5.25;;;;;;;24.67;60.34;96556.19;4989477;28;20069;-60
2021/09/24 10:48:02;;;;;;;6.82;4.72;;;;;;;24.18;58.79;96544.63;4981912;28;20084;-60
2021/09/24 10:51:05;;;;;;;7.78;4.95;;;;;;;24.08;59.44;96545.19;4984001;28;20068;-58
2021/09/24 10:53:48;;;;;;;6.63;5.28;;;;;;;23.61;62.75;96550.31;4983569;28;20065;-59
2021/09/24 10:56:33;;;;;;;6.90;5.40;;;;;;;23.89;61.71;96547.09;4978951;28;20065;-60
2021/09/24 10:59:22;;;;;;;8.00;4.95;;;;;;;24.09;62.50;96543.34;4983403;28;20472;-60
2021/09/24 11:01:50;;;;;;;5.22;4.65;;;;;;;23.81;60.77;96543.88;4985530;28;20093;-59
2021/09/24 11:04:19;;;;;;;5.78;5.18;;;;;;;23.25;60.92;96544.91;4983089;28;20093;-61
2021/09/24 11:06:52;;;;;;;5.88;4.90;;;;;;;24.23;60.31;96544.78;4984297;28;20074;-60
2021/09/24 11:09:22;;;;;;;9.57;5.40;;;;;;;23.32;62.60;96549.16;4979543;28;20575;-59
2021/09/24 11:11:52;;;;;;;8.25;5.82;;;;;;;23.64;59.65;96528.31;4982419;28;20627;-59
2021/09/24 11:14:29;;;;;;;5.65;4.53;;;;;;;24.54;59.69;96529.44;4986375;28;20474;-59
2021/09/24 11:16:58;;;;;;;6.20;4.45;;;;;;;24.96;57.26;96530.19;4983062;28;20082;-60
2021/09/24 11:19:41;;;;;;;6.68;5.32;;;;;;;23.73;60.91;96528.84;4977859;28;20082;-59
2021/09/24 11:22:25;;;;;;;7.05;5.28;;;;;;;24.61;55.91;96530.16;4983505;28;20149;-60
2021/09/24 11:25:11;;;;;;;5.10;4.50;;;;;;;25.17;57.41;96514.50;4985710;28;20066;-61
2021/09/24 11:27:41;;;;;;;5.72;4.68;;;;;;;24.16;53.90;96520.63;4987800;28;20073;-58
2021/09/24 11:30:13;;;;;;;6.47;4.70;;;;;;;24.42;55.33;96521.31;4981164;28;20069;-61